CPX11 Details

Departure: Chek Lap Kok International (VHHH)
Arrival: Ted Stevens Anchorage International Airport (PANC)
Route: OCEAN V3 ENVAR M750 MEXIR M750 BUNGU Y81 SYOYU Y809 SPEAR Y808 PEXEL A590 POWAL A590 PINSO A590 HAMND NEELL6


Current Weather Information
VHHH 252330Z 05007KT 7000 FEW014 22/19 Q1018 NOSIG
PANC 252353Z 33005KT 10SM FEW060 BKN230 08/M01 A3020 RMK AO2 SLP230 4/006 T00831011 10089 20033 58011